sensor_id;sensor_type;location;lat;lon;timestamp;pressure;altitude;pressure_sealevel;temperature;humidity
85400;BME280;75813;48.758;9.290;2024-03-23T00:53:26;96634.53;;;9.94;73.83
85400;BME280;75813;48.758;9.290;2024-03-23T00:55:52;96619.88;;;9.92;73.99
85400;BME280;75813;48.758;9.290;2024-03-23T00:58:17;96620.59;;;9.89;74.43
85400;BME280;75813;48.758;9.290;2024-03-23T01:00:42;96620.84;;;9.84;74.13
85400;BME280;75813;48.758;9.290;2024-03-23T01:03:08;96614.69;;;9.67;75.52
85400;BME280;75813;48.758;9.290;2024-03-23T01:05:33;96610.88;;;9.53;76.42
85400;BME280;75813;48.758;9.290;2024-03-23T01:07:58;96605.06;;;9.51;76.83
85400;BME280;75813;48.758;9.290;2024-03-23T01:10:24;96610.09;;;9.52;76.22
85400;BME280;75813;48.758;9.290;2024-03-23T01:12:49;96599.16;;;9.45;76.65
85400;BME280;75813;48.758;9.290;2024-03-23T01:15:15;96604.53;;;9.45;77.86
85400;BME280;75813;48.758;9.290;2024-03-23T01:17:40;96609.13;;;9.45;76.46
85400;BME280;75813;48.758;9.290;2024-03-23T01:20:06;96609.91;;;9.45;76.52
85400;BME280;75813;48.758;9.290;2024-03-23T01:22:32;96601.59;;;9.50;77.06
85400;BME280;75813;48.758;9.290;2024-03-23T01:24:58;96581.56;;;9.48;76.21
85400;BME280;75813;48.758;9.290;2024-03-23T01:27:23;96586.69;;;9.53;76.18
85400;BME280;75813;48.758;9.290;2024-03-23T01:29:48;96585.66;;;9.57;75.80
85400;BME280;75813;48.758;9.290;2024-03-23T01:32:14;96568.81;;;9.60;75.70
85400;BME280;75813;48.758;9.290;2024-03-23T01:34:39;96574.97;;;9.61;76.16
85400;BME280;75813;48.758;9.290;2024-03-23T01:37:04;96570.75;;;9.60;75.23
85400;BME280;75813;48.758;9.290;2024-03-23T01:39:30;96569.44;;;9.54;75.23
85400;BME280;75813;48.758;9.290;2024-03-23T01:41:55;96563.81;;;9.59;75.15
85400;BME280;75813;48.758;9.290;2024-03-23T01:44:20;96567.44;;;9.66;75.29
85400;BME280;75813;48.758;9.290;2024-03-23T01:46:46;96562.94;;;9.70;75.02
85400;BME280;75813;48.758;9.290;2024-03-23T01:49:12;96573.06;;;9.77;74.76
85400;BME280;75813;48.758;9.290;2024-03-23T01:51:38;96571.47;;;9.92;75.23
85400;BME280;75813;48.758;9.290;2024-03-23T01:54:05;96563.63;;;10.02;76.22
85400;BME280;75813;48.758;9.290;2024-03-23T01:56:33;96546.28;;;10.15;73.24
85400;BME280;75813;48.758;9.290;2024-03-23T01:59:01;96540.78;;;10.28;73.36
85400;BME280;75813;48.758;9.290;2024-03-23T02:01:26;96542.59;;;10.39;72.40
85400;BME280;75813;48.758;9.290;2024-03-23T02:03:51;96541.66;;;10.51;72.34
85400;BME280;75813;48.758;9.290;2024-03-23T02:06:17;96529.66;;;10.48;71.94
85400;BME280;75813;48.758;9.290;2024-03-23T02:08:43;96530.09;;;10.50;72.39
85400;BME280;75813;48.758;9.290;2024-03-23T02:11:09;96533.06;;;10.65;72.07
85400;BME280;75813;48.758;9.290;2024-03-23T02:13:34;96516.00;;;10.76;70.84
85400;BME280;75813;48.758;9.290;2024-03-23T02:15:59;96516.91;;;10.84;70.83
85400;BME280;75813;48.758;9.290;2024-03-23T02:18:25;96527.16;;;10.97;69.88
85400;BME280;75813;48.758;9.290;2024-03-23T02:20:51;96510.34;;;11.04;70.09
85400;BME280;75813;48.758;9.290;2024-03-23T02:23:17;96517.69;;;11.07;69.54
85400;BME280;75813;48.758;9.290;2024-03-23T02:25:46;96514.72;;;11.12;69.50
85400;BME280;75813;48.758;9.290;2024-03-23T02:28:11;96506.63;;;11.12;69.92
85400;BME280;75813;48.758;9.290;2024-03-23T02:30:37;96510.09;;;11.13;70.03
85400;BME280;75813;48.758;9.290;2024-03-23T02:33:03;96491.25;;;11.13;70.15
85400;BME280;75813;48.758;9.290;2024-03-23T02:35:28;96485.13;;;11.16;70.15
85400;BME280;75813;48.758;9.290;2024-03-23T02:37:53;96503.75;;;11.24;69.66
85400;BME280;75813;48.758;9.290;2024-03-23T02:40:22;96494.19;;;11.27;69.52
85400;BME280;75813;48.758;9.290;2024-03-23T02:42:47;96496.09;;;11.26;69.46
85400;BME280;75813;48.758;9.290;2024-03-23T02:45:13;96498.41;;;11.28;69.32
85400;BME280;75813;48.758;9.290;2024-03-23T02:47:38;96477.81;;;11.16;69.60
85400;BME280;75813;48.758;9.290;2024-03-23T02:50:04;96501.09;;;11.28;69.75
85400;BME280;75813;48.758;9.290;2024-03-23T02:52:29;96493.44;;;11.30;70.10
85400;BME280;75813;48.758;9.290;2024-03-23T02:54:55;96481.53;;;11.31;69.41
85400;BME280;75813;48.758;9.290;2024-03-23T02:57:20;96479.25;;;11.33;69.65
85400;BME280;75813;48.758;9.290;2024-03-23T02:59:46;96483.44;;;11.30;70.12
85400;BME280;75813;48.758;9.290;2024-03-23T03:02:13;96486.56;;;11.32;70.27
85400;BME280;75813;48.758;9.290;2024-03-23T03:04:38;96478.84;;;11.31;70.19
85400;BME280;75813;48.758;9.290;2024-03-23T03:07:04;96476.19;;;11.34;70.26
85400;BME280;75813;48.758;9.290;2024-03-23T03:09:29;96471.66;;;11.38;70.23
85400;BME280;75813;48.758;9.290;2024-03-23T03:11:55;96477.81;;;11.39;70.36
85400;BME280;75813;48.758;9.290;2024-03-23T03:14:20;96466.25;;;11.38;70.61
85400;BME280;75813;48.758;9.290;2024-03-23T03:16:46;96463.19;;;11.40;70.62
85400;BME280;75813;48.758;9.290;2024-03-23T03:19:11;96470.13;;;11.41;70.90
85400;BME280;75813;48.758;9.290;2024-03-23T03:21:37;96474.09;;;11.47;70.00
85400;BME280;75813;48.758;9.290;2024-03-23T03:24:03;96472.94;;;11.48;70.38
85400;BME280;75813;48.758;9.290;2024-03-23T03:26:28;96464.44;;;11.46;71.23
85400;BME280;75813;48.758;9.290;2024-03-23T03:28:54;96460.91;;;11.42;70.39
85400;BME280;75813;48.758;9.290;2024-03-23T03:31:20;96447.13;;;11.47;70.57
85400;BME280;75813;48.758;9.290;2024-03-23T03:33:45;96460.31;;;11.52;71.18
85400;BME280;75813;48.758;9.290;2024-03-23T03:36:11;96451.84;;;11.53;70.55
85400;BME280;75813;48.758;9.290;2024-03-23T03:38:36;96448.41;;;11.57;70.87
85400;BME280;75813;48.758;9.290;2024-03-23T03:41:02;96447.22;;;11.54;70.46
85400;BME280;75813;48.758;9.290;2024-03-23T03:43:28;96449.88;;;11.50;70.60
85400;BME280;75813;48.758;9.290;2024-03-23T03:45:57;96445.22;;;11.47;71.42
85400;BME280;75813;48.758;9.290;2024-03-23T03:48:23;96451.69;;;11.43;71.46
85400;BME280;75813;48.758;9.290;2024-03-23T03:50:49;96441.25;;;11.41;71.33
85400;BME280;75813;48.758;9.290;2024-03-23T03:53:14;96432.00;;;11.39;71.72
85400;BME280;75813;48.758;9.290;2024-03-23T03:55:40;96428.03;;;11.33;71.67
85400;BME280;75813;48.758;9.290;2024-03-23T03:58:05;96426.47;;;11.32;72.23
85400;BME280;75813;48.758;9.290;2024-03-23T04:00:30;96415.69;;;11.32;72.15
85400;BME280;75813;48.758;9.290;2024-03-23T04:02:56;96408.38;;;11.32;71.86
85400;BME280;75813;48.758;9.290;2024-03-23T04:05:22;96391.78;;;11.27;72.03
85400;BME280;75813;48.758;9.290;2024-03-23T04:07:47;96378.31;;;11.27;72.68
85400;BME280;75813;48.758;9.290;2024-03-23T04:10:13;96375.19;;;11.25;73.03
85400;BME280;75813;48.758;9.290;2024-03-23T04:12:38;96377.03;;;11.21;72.86
85400;BME280;75813;48.758;9.290;2024-03-23T04:15:04;96365.88;;;11.19;73.32
85400;BME280;75813;48.758;9.290;2024-03-23T04:17:30;96370.78;;;11.13;73.82
85400;BME280;75813;48.758;9.290;2024-03-23T04:19:57;96359.63;;;11.15;73.68
85400;BME280;75813;48.758;9.290;2024-03-23T04:22:23;96347.25;;;11.10;73.76
85400;BME280;75813;48.758;9.290;2024-03-23T04:24:55;96329.59;;;11.13;74.06
85400;BME280;75813;48.758;9.290;2024-03-23T04:27:21;96343.09;;;11.16;74.96
85400;BME280;75813;48.758;9.290;2024-03-23T04:29:47;96338.19;;;11.22;74.89
85400;BME280;75813;48.758;9.290;2024-03-23T04:32:13;96343.25;;;11.27;75.17
85400;BME280;75813;48.758;9.290;2024-03-23T04:34:39;96338.69;;;11.31;75.03
85400;BME280;75813;48.758;9.290;2024-03-23T04:37:05;96342.94;;;11.32;75.14
85400;BME280;75813;48.758;9.290;2024-03-23T04:39:30;96337.19;;;11.33;75.21
85400;BME280;75813;48.758;9.290;2024-03-23T04:41:55;96337.63;;;11.35;74.80
85400;BME280;75813;48.758;9.290;2024-03-23T04:44:21;96336.06;;;11.34;74.28
85400;BME280;75813;48.758;9.290;2024-03-23T04:46:46;96367.31;;;11.39;75.93
85400;BME280;75813;48.758;9.290;2024-03-23T04:49:12;96378.13;;;11.16;74.96
85400;BME280;75813;48.758;9.290;2024-03-23T04:51:38;96375.34;;;10.86;78.12
85400;BME280;75813;48.758;9.290;2024-03-23T04:54:04;96376.31;;;10.75;81.29
85400;BME280;75813;48.758;9.290;2024-03-23T04:56:30;96374.72;;;10.70;85.26
85400;BME280;75813;48.758;9.290;2024-03-23T04:58:56;96375.94;;;10.73;86.77
85400;BME280;75813;48.758;9.290;2024-03-23T05:01:26;96394.00;;;10.72;88.61
85400;BME280;75813;48.758;9.290;2024-03-23T05:03:51;96387.78;;;10.68;90.78
85400;BME280;75813;48.758;9.290;2024-03-23T05:06:18;96406.06;;;10.59;94.56
85400;BME280;75813;48.758;9.290;2024-03-23T05:08:43;96412.19;;;10.37;99.68
85400;BME280;75813;48.758;9.290;2024-03-23T05:11:09;96408.03;;;10.20;100.00
85400;BME280;75813;48.758;9.290;2024-03-23T05:13:35;96410.34;;;10.02;100.00
85400;BME280;75813;48.758;9.290;2024-03-23T05:16:00;96416.66;;;9.91;100.00
85400;BME280;75813;48.758;9.290;2024-03-23T05:18:25;96414.44;;;9.77;100.00
85400;BME280;75813;48.758;9.290;2024-03-23T05:20:56;96413.19;;;9.71;100.00
85400;BME280;75813;48.758;9.290;2024-03-23T05:23:22;96401.13;;;9.65;100.00
85400;BME280;75813;48.758;9.290;2024-03-23T05:25:48;96396.47;;;9.62;100.00
85400;BME280;75813;48.758;9.290;2024-03-23T05:28:13;96401.44;;;9.60;100.00
85400;BME280;75813;48.758;9.290;2024-03-23T05:30:39;96410.16;;;9.57;100.00
85400;BME280;75813;48.758;9.290;2024-03-23T05:33:05;96415.41;;;9.50;100.00
85400;BME280;75813;48.758;9.290;2024-03-23T05:35:30;96409.50;;;9.44;100.00
85400;BME280;75813;48.758;9.290;2024-03-23T05:37:57;96412.06;;;9.37;100.00
85400;BME280;75813;48.758;9.290;2024-03-23T05:40:23;96417.63;;;9.29;100.00
85400;BME280;75813;48.758;9.290;2024-03-23T05:42:49;96418.81;;;9.31;100.00
85400;BME280;75813;48.758;9.290;2024-03-23T05:45:14;96415.13;;;9.20;100.00
85400;BME280;75813;48.758;9.290;2024-03-23T05:47:39;96434.63;;;9.17;100.00
85400;BME280;75813;48.758;9.290;2024-03-23T05:50:05;96464.09;;;9.13;100.00
85400;BME280;75813;48.758;9.290;2024-03-23T05:52:30;96458.63;;;9.10;100.00
85400;BME280;75813;48.758;9.290;2024-03-23T05:54:56;96468.59;;;9.09;100.00
85400;BME280;75813;48.758;9.290;2024-03-23T05:57:21;96477.75;;;9.08;100.00
85400;BME280;75813;48.758;9.290;2024-03-23T05:59:46;96466.50;;;9.03;100.00
85400;BME280;75813;48.758;9.290;2024-03-23T06:02:12;96468.75;;;9.01;100.00
85400;BME280;75813;48.758;9.290;2024-03-23T06:04:37;96491.28;;;8.96;100.00
85400;BME280;75813;48.758;9.290;2024-03-23T06:07:04;96477.56;;;8.86;100.00
85400;BME280;75813;48.758;9.290;2024-03-23T06:09:31;96456.88;;;8.70;100.00
85400;BME280;75813;48.758;9.290;2024-03-23T06:11:57;96493.03;;;8.61;100.00
85400;BME280;75813;48.758;9.290;2024-03-23T06:14:22;96486.94;;;8.48;100.00
85400;BME280;75813;48.758;9.290;2024-03-23T06:16:47;96512.97;;;8.48;100.00
85400;BME280;75813;48.758;9.290;2024-03-23T06:19:13;96496.78;;;8.44;100.00
85400;BME280;75813;48.758;9.290;2024-03-23T06:21:43;96479.31;;;8.35;100.00
85400;BME280;75813;48.758;9.290;2024-03-23T06:24:10;96508.13;;;8.38;100.00
85400;BME280;75813;48.758;9.290;2024-03-23T06:26:35;96522.22;;;8.35;100.00
85400;BME280;75813;48.758;9.290;2024-03-23T06:29:01;96519.09;;;8.32;100.00
85400;BME280;75813;48.758;9.290;2024-03-23T06:31:26;96528.13;;;8.28;100.00
85400;BME280;75813;48.758;9.290;2024-03-23T06:33:51;96529.94;;;8.24;100.00
85400;BME280;75813;48.758;9.290;2024-03-23T06:36:17;96544.34;;;8.19;100.00
85400;BME280;75813;48.758;9.290;2024-03-23T06:38:44;96546.59;;;8.17;100.00
85400;BME280;75813;48.758;9.290;2024-03-23T06:41:10;96556.19;;;8.18;100.00
85400;BME280;75813;48.758;9.290;2024-03-23T06:43:36;96553.41;;;8.15;100.00
85400;BME280;75813;48.758;9.290;2024-03-23T06:46:03;96564.13;;;8.15;100.00
85400;BME280;75813;48.758;9.290;2024-03-23T06:48:29;96567.59;;;8.15;100.00
85400;BME280;75813;48.758;9.290;2024-03-23T06:50:58;96568.72;;;8.14;99.51
85400;BME280;75813;48.758;9.290;2024-03-23T06:53:23;96586.03;;;8.17;100.00
85400;BME280;75813;48.758;9.290;2024-03-23T06:55:53;96588.94;;;8.12;98.80
85400;BME280;75813;48.758;9.290;2024-03-23T06:58:23;96609.28;;;8.13;99.10
85400;BME280;75813;48.758;9.290;2024-03-23T07:00:48;96612.75;;;8.13;99.62
85400;BME280;75813;48.758;9.290;2024-03-23T07:03:15;96611.88;;;8.09;97.39
85400;BME280;75813;48.758;9.290;2024-03-23T07:05:40;96610.50;;;8.03;97.69
85400;BME280;75813;48.758;9.290;2024-03-23T07:08:05;96632.75;;;8.04;99.51
85400;BME280;75813;48.758;9.290;2024-03-23T07:10:31;96616.56;;;8.00;96.68
85400;BME280;75813;48.758;9.290;2024-03-23T07:12:56;96628.38;;;7.99;99.62
85400;BME280;75813;48.758;9.290;2024-03-23T07:15:22;96636.75;;;7.98;98.43
85400;BME280;75813;48.758;9.290;2024-03-23T07:17:47;96636.91;;;8.01;99.50
85400;BME280;75813;48.758;9.290;2024-03-23T07:20:13;96639.69;;;8.05;99.95
85400;BME280;75813;48.758;9.290;2024-03-23T07:22:38;96627.38;;;8.04;99.47
85400;BME280;75813;48.758;9.290;2024-03-23T07:25:05;96633.19;;;8.06;98.94
85400;BME280;75813;48.758;9.290;2024-03-23T07:27:31;96634.97;;;8.02;96.85
85400;BME280;75813;48.758;9.290;2024-03-23T07:29:56;96632.19;;;7.98;97.54
85400;BME280;75813;48.758;9.290;2024-03-23T07:32:21;96619.03;;;7.93;97.47
85400;BME280;75813;48.758;9.290;2024-03-23T07:34:47;96632.88;;;7.95;97.56
85400;BME280;75813;48.758;9.290;2024-03-23T07:37:13;96634.53;;;8.00;97.77
85400;BME280;75813;48.758;9.290;2024-03-23T07:39:41;96645.03;;;8.05;98.20
85400;BME280;75813;48.758;9.290;2024-03-23T07:42:07;96627.06;;;8.05;97.18
85400;BME280;75813;48.758;9.290;2024-03-23T07:44:32;96660.00;;;8.06;96.40
85400;BME280;75813;48.758;9.290;2024-03-23T07:47:00;96664.47;;;8.02;96.00
85400;BME280;75813;48.758;9.290;2024-03-23T07:49:25;96681.00;;;8.04;96.87
85400;BME280;75813;48.758;9.290;2024-03-23T07:51:50;96657.19;;;8.02;97.20
85400;BME280;75813;48.758;9.290;2024-03-23T07:54:16;96668.72;;;8.03;96.67
85400;BME280;75813;48.758;9.290;2024-03-23T07:56:41;96672.28;;;7.95;98.18
85400;BME280;75813;48.758;9.290;2024-03-23T07:59:06;96681.00;;;7.92;97.11
85400;BME280;75813;48.758;9.290;2024-03-23T08:01:32;96686.34;;;7.79;100.00
85400;BME280;75813;48.758;9.290;2024-03-23T08:03:57;96700.53;;;7.68;100.00
85400;BME280;75813;48.758;9.290;2024-03-23T08:06:23;96682.59;;;7.48;100.00
85400;BME280;75813;48.758;9.290;2024-03-23T08:08:54;96723.63;;;7.39;100.00
85400;BME280;75813;48.758;9.290;2024-03-23T08:11:29;96725.41;;;7.35;100.00
85400;BME280;75813;48.758;9.290;2024-03-23T08:13:55;96737.81;;;7.40;100.00
85400;BME280;75813;48.758;9.290;2024-03-23T08:16:21;96731.22;;;7.37;100.00
85400;BME280;75813;48.758;9.290;2024-03-23T08:18:47;96747.63;;;7.36;100.00
85400;BME280;75813;48.758;9.290;2024-03-23T08:21:12;96739.94;;;7.34;100.00
85400;BME280;75813;48.758;9.290;2024-03-23T08:23:38;96716.03;;;7.29;100.00
85400;BME280;75813;48.758;9.290;2024-03-23T08:26:05;96747.56;;;7.24;100.00
85400;BME280;75813;48.758;9.290;2024-03-23T08:28:32;96779.19;;;7.30;100.00
85400;BME280;75813;48.758;9.290;2024-03-23T08:31:01;96786.69;;;7.37;100.00
85400;BME280;75813;48.758;9.290;2024-03-23T08:33:28;96793.63;;;7.38;100.00
85400;BME280;75813;48.758;9.290;2024-03-23T08:35:57;96802.56;;;7.42;99.26
85400;BME280;75813;48.758;9.290;2024-03-23T08:38:23;96806.22;;;7.37;98.14
85400;BME280;75813;48.758;9.290;2024-03-23T08:40:56;96797.53;;;7.20;100.00
85400;BME280;75813;48.758;9.290;2024-03-23T08:43:25;96824.50;;;7.35;99.93
85400;BME280;75813;48.758;9.290;2024-03-23T08:45:51;96811.91;;;7.36;100.00
85400;BME280;75813;48.758;9.290;2024-03-23T08:48:18;96812.25;;;7.14;98.87
85400;BME280;75813;48.758;9.290;2024-03-23T08:50:46;96800.59;;;7.10;100.00
85400;BME280;75813;48.758;9.290;2024-03-23T08:53:11;96811.81;;;7.03;100.00
85400;BME280;75813;48.758;9.290;2024-03-23T08:55:37;96828.53;;;7.00;99.96
85400;BME280;75813;48.758;9.290;2024-03-23T08:58:02;96847.72;;;7.02;100.00
85400;BME280;75813;48.758;9.290;2024-03-23T09:00:29;96860.94;;;7.07;99.26
85400;BME280;75813;48.758;9.290;2024-03-23T09:02:55;96876.94;;;7.16;99.31
85400;BME280;75813;48.758;9.290;2024-03-23T09:05:21;96887.78;;;7.19;98.60
85400;BME280;75813;48.758;9.290;2024-03-23T09:07:47;96869.75;;;7.08;95.08
85400;BME280;75813;48.758;9.290;2024-03-23T09:10:12;96883.53;;;6.89;94.41
85400;BME280;75813;48.758;9.290;2024-03-23T09:12:37;96885.66;;;6.75;94.70
85400;BME280;75813;48.758;9.290;2024-03-23T09:15:03;96899.03;;;6.75;94.94
85400;BME280;75813;48.758;9.290;2024-03-23T09:17:28;96919.66;;;6.74;93.85
85400;BME280;75813;48.758;9.290;2024-03-23T09:19:54;96933.16;;;6.78;95.04
85400;BME280;75813;48.758;9.290;2024-03-23T09:22:19;96930.63;;;6.81;95.36
85400;BME280;75813;48.758;9.290;2024-03-23T09:24:44;96926.56;;;6.84;95.56
85400;BME280;75813;48.758;9.290;2024-03-23T09:27:10;96926.56;;;6.84;94.87
85400;BME280;75813;48.758;9.290;2024-03-23T09:29:35;96929.03;;;6.89;94.58
85400;BME280;75813;48.758;9.290;2024-03-23T09:32:01;96923.84;;;6.92;95.44
85400;BME280;75813;48.758;9.290;2024-03-23T09:34:26;96931.22;;;6.96;95.14
85400;BME280;75813;48.758;9.290;2024-03-23T09:36:52;96920.91;;;7.06;95.92
85400;BME280;75813;48.758;9.290;2024-03-23T09:39:18;96925.75;;;7.21;94.37
85400;BME280;75813;48.758;9.290;2024-03-23T09:41:43;96910.00;;;7.40;93.92
85400;BME280;75813;48.758;9.290;2024-03-23T09:44:09;96921.78;;;7.69;93.41
85400;BME280;75813;48.758;9.290;2024-03-23T09:46:34;96910.97;;;7.98;91.92
85400;BME280;75813;48.758;9.290;2024-03-23T09:49:02;96911.81;;;8.31;94.07
85400;BME280;75813;48.758;9.290;2024-03-23T09:51:31;96905.88;;;8.71;91.41
85400;BME280;75813;48.758;9.290;2024-03-23T09:53:57;96894.25;;;8.91;91.81
85400;BME280;75813;48.758;9.290;2024-03-23T09:56:22;96892.78;;;8.94;88.65
85400;BME280;75813;48.758;9.290;2024-03-23T09:58:48;96895.03;;;8.80;81.24
85400;BME280;75813;48.758;9.290;2024-03-23T10:01:14;96893.88;;;8.68;77.11
85400;BME280;75813;48.758;9.290;2024-03-23T10:03:44;96897.47;;;8.72;80.65
85400;BME280;75813;48.758;9.290;2024-03-23T10:06:10;96901.97;;;8.81;84.52
85400;BME280;75813;48.758;9.290;2024-03-23T10:08:35;96899.13;;;8.77;78.69
85400;BME280;75813;48.758;9.290;2024-03-23T10:11:13;96896.13;;;8.66;72.86
85400;BME280;75813;48.758;9.290;2024-03-23T10:13:41;96888.38;;;8.65;70.21
85400;BME280;75813;48.758;9.290;2024-03-23T10:16:07;96877.91;;;8.60;68.89
85400;BME280;75813;48.758;9.290;2024-03-23T10:18:37;96891.19;;;8.68;69.60
85400;BME280;75813;48.758;9.290;2024-03-23T10:21:06;96883.03;;;8.89;65.39
85400;BME280;75813;48.758;9.290;2024-03-23T10:23:35;96873.09;;;9.14;66.50
85400;BME280;75813;48.758;9.290;2024-03-23T10:26:22;96884.50;;;9.11;63.50
85400;BME280;75813;48.758;9.290;2024-03-23T10:28:55;96867.50;;;8.95;64.24
85400;BME280;75813;48.758;9.290;2024-03-23T10:31:23;96873.44;;;8.76;66.19
85400;BME280;75813;48.758;9.290;2024-03-23T10:33:49;96891.53;;;8.67;70.23
85400;BME280;75813;48.758;9.290;2024-03-23T10:36:15;96869.59;;;8.65;67.05
85400;BME280;75813;48.758;9.290;2024-03-23T10:38:42;96883.59;;;8.58;66.98
85400;BME280;75813;48.758;9.290;2024-03-23T10:41:11;96889.84;;;8.62;67.52
85400;BME280;75813;48.758;9.290;2024-03-23T10:43:37;96876.84;;;8.52;63.95
85400;BME280;75813;48.758;9.290;2024-03-23T10:46:04;96860.22;;;8.47;67.83
85400;BME280;75813;48.758;9.290;2024-03-23T10:48:29;96877.84;;;8.48;66.87
85400;BME280;75813;48.758;9.290;2024-03-23T10:50:55;96861.66;;;8.44;66.12
85400;BME280;75813;48.758;9.290;2024-03-23T10:53:26;96862.63;;;8.40;67.36
85400;BME280;75813;48.758;9.290;2024-03-23T10:55:52;96883.78;;;8.41;69.44
85400;BME280;75813;48.758;9.290;2024-03-23T10:58:31;96891.47;;;8.30;72.21
85400;BME280;75813;48.758;9.290;2024-03-23T11:00:57;96900.25;;;7.98;74.09
85400;BME280;75813;48.758;9.290;2024-03-23T11:03:30;96930.22;;;7.59;77.73
85400;BME280;75813;48.758;9.290;2024-03-23T11:05:56;96943.88;;;6.78;90.51
85400;BME280;75813;48.758;9.290;2024-03-23T11:08:40;96937.38;;;6.41;95.87
85400;BME280;75813;48.758;9.290;2024-03-23T11:11:19;96933.50;;;6.21;99.26
85400;BME280;75813;48.758;9.290;2024-03-23T11:13:52;96962.41;;;6.02;100.00
85400;BME280;75813;48.758;9.290;2024-03-23T11:18:48;96975.59;;;5.81;100.00
85400;BME280;75813;48.758;9.290;2024-03-23T11:21:52;96973.75;;;5.90;100.00
85400;BME280;75813;48.758;9.290;2024-03-23T11:24:19;96953.78;;;5.96;100.00
85400;BME280;75813;48.758;9.290;2024-03-23T11:26:45;96963.22;;;6.11;100.00
85400;BME280;75813;48.758;9.290;2024-03-23T11:29:11;96972.00;;;6.29;100.00
85400;BME280;75813;48.758;9.290;2024-03-23T11:31:49;96961.88;;;6.52;100.00
85400;BME280;75813;48.758;9.290;2024-03-23T11:34:15;96955.56;;;6.56;100.00
85400;BME280;75813;48.758;9.290;2024-03-23T11:36:42;96964.88;;;6.59;100.00
85400;BME280;75813;48.758;9.290;2024-03-23T11:39:14;96967.97;;;6.69;100.00
85400;BME280;75813;48.758;9.290;2024-03-23T11:41:51;96966.94;;;7.00;100.00
85400;BME280;75813;48.758;9.290;2024-03-23T11:44:27;96963.66;;;7.23;100.00
85400;BME280;75813;48.758;9.290;2024-03-23T11:46:53;96958.53;;;7.39;100.00
85400;BME280;75813;48.758;9.290;2024-03-23T11:49:28;96963.34;;;7.54;100.00
85400;BME280;75813;48.758;9.290;2024-03-23T11:51:55;96956.63;;;7.69;100.00
85400;BME280;75813;48.758;9.290;2024-03-23T11:54:22;96956.50;;;7.65;96.33
85400;BME280;75813;48.758;9.290;2024-03-23T11:56:59;96942.00;;;7.66;96.54
85400;BME280;75813;48.758;9.290;2024-03-23T11:59:35;96947.41;;;7.78;93.30
85400;BME280;75813;48.758;9.290;2024-03-23T12:02:08;96945.91;;;7.90;88.09
85400;BME280;75813;48.758;9.290;2024-03-23T12:04:35;96958.00;;;7.96;91.05
85400;BME280;75813;48.758;9.290;2024-03-23T12:07:16;96947.94;;;7.93;85.88
85400;BME280;75813;48.758;9.290;2024-03-23T12:09:44;96947.16;;;7.92;85.65
85400;BME280;75813;48.758;9.290;2024-03-23T12:12:14;96942.00;;;7.87;81.03
85400;BME280;75813;48.758;9.290;2024-03-23T12:15:01;96928.97;;;7.77;75.48
85400;BME280;75813;48.758;9.290;2024-03-23T12:17:27;96940.09;;;7.88;82.76
85400;BME280;75813;48.758;9.290;2024-03-23T12:19:52;96939.31;;;7.87;78.17
85400;BME280;75813;48.758;9.290;2024-03-23T12:22:22;96936.81;;;7.82;80.41
85400;BME280;75813;48.758;9.290;2024-03-23T12:24:48;96937.94;;;7.81;77.50
85400;BME280;75813;48.758;9.290;2024-03-23T12:27:13;96931.09;;;7.71;75.52
85400;BME280;75813;48.758;9.290;2024-03-23T12:29:38;96931.72;;;7.68;74.41
85400;BME280;75813;48.758;9.290;2024-03-23T12:32:04;96931.41;;;7.70;75.46
85400;BME280;75813;48.758;9.290;2024-03-23T12:34:30;96925.31;;;7.61;74.06
85400;BME280;75813;48.758;9.290;2024-03-23T12:36:56;96933.22;;;7.78;82.28
85400;BME280;75813;48.758;9.290;2024-03-23T12:39:21;96924.69;;;7.84;73.55
85400;BME280;75813;48.758;9.290;2024-03-23T12:41:48;96925.06;;;7.95;78.32
85400;BME280;75813;48.758;9.290;2024-03-23T12:44:13;96924.84;;;8.00;73.88
85400;BME280;75813;48.758;9.290;2024-03-23T12:46:40;96924.66;;;8.05;73.40
85400;BME280;75813;48.758;9.290;2024-03-23T12:49:06;96925.09;;;8.07;71.33
85400;BME280;75813;48.758;9.290;2024-03-23T12:51:32;96932.91;;;8.00;66.99
85400;BME280;75813;48.758;9.290;2024-03-23T12:53:57;96938.06;;;8.05;75.45
85400;BME280;75813;48.758;9.290;2024-03-23T12:56:23;96919.94;;;8.02;69.52
85400;BME280;75813;48.758;9.290;2024-03-23T12:58:48;96934.00;;;7.99;67.43
85400;BME280;75813;48.758;9.290;2024-03-23T13:01:19;96920.47;;;7.96;67.39
85400;BME280;75813;48.758;9.290;2024-03-23T13:03:48;96916.28;;;7.86;67.52
85400;BME280;75813;48.758;9.290;2024-03-23T13:06:14;96922.69;;;7.94;72.70
85400;BME280;75813;48.758;9.290;2024-03-23T13:08:40;96916.56;;;7.93;67.92
85400;BME280;75813;48.758;9.290;2024-03-23T13:11:07;96911.25;;;8.05;69.26
85400;BME280;75813;48.758;9.290;2024-03-23T13:13:36;96905.47;;;8.15;66.30
85400;BME280;75813;48.758;9.290;2024-03-23T13:16:01;96892.75;;;8.24;65.89
85400;BME280;75813;48.758;9.290;2024-03-23T13:18:29;96905.25;;;8.53;68.02
85400;BME280;75813;48.758;9.290;2024-03-23T13:20:54;96897.91;;;8.62;69.21
85400;BME280;75813;48.758;9.290;2024-03-23T13:23:20;96898.34;;;8.64;67.71
85400;BME280;75813;48.758;9.290;2024-03-23T13:25:53;96890.28;;;8.52;67.02
85400;BME280;75813;48.758;9.290;2024-03-23T13:28:20;96890.06;;;8.57;67.30
85400;BME280;75813;48.758;9.290;2024-03-23T13:30:55;96887.50;;;8.73;67.27
85400;BME280;75813;48.758;9.290;2024-03-23T13:33:21;96888.75;;;8.75;68.66
85400;BME280;75813;48.758;9.290;2024-03-23T13:35:51;96893.34;;;8.75;66.98
85400;BME280;75813;48.758;9.290;2024-03-23T13:38:17;96878.56;;;8.69;66.71
85400;BME280;75813;48.758;9.290;2024-03-23T13:41:00;96857.88;;;8.57;63.71
85400;BME280;75813;48.758;9.290;2024-03-23T13:43:27;96849.81;;;8.57;59.90
85400;BME280;75813;48.758;9.290;2024-03-23T13:45:57;96839.66;;;8.75;64.95
85400;BME280;75813;48.758;9.290;2024-03-23T13:48:26;96839.63;;;9.11;62.74
85400;BME280;75813;48.758;9.290;2024-03-23T13:51:05;96834.75;;;9.41;54.52
85400;BME280;75813;48.758;9.290;2024-03-23T13:53:31;96840.66;;;9.59;54.65
85400;BME280;75813;48.758;9.290;2024-03-23T13:55:57;96832.28;;;9.76;51.44
85400;BME280;75813;48.758;9.290;2024-03-23T13:58:23;96827.09;;;9.83;52.27